sensor_id;sensor_type;location;lat;lon;timestamp;pressure;altitude;pressure_sealevel;temperature;humidity
15405;BME280;7801;48.124;11.590;2023-05-18T00:02:04;95948.72;;;14.86;65.86
15405;BME280;7801;48.124;11.590;2023-05-18T00:04:30;95947.91;;;13.77;59.03
15405;BME280;7801;48.124;11.590;2023-05-18T00:06:57;95944.44;;;12.90;61.93
15405;BME280;7801;48.124;11.590;2023-05-18T00:09:31;95940.25;;;12.19;65.08
15405;BME280;7801;48.124;11.590;2023-05-18T00:11:57;95943.25;;;11.69;67.19
15405;BME280;7801;48.124;11.590;2023-05-18T00:14:23;95950.59;;;11.30;69.45
15405;BME280;7801;48.124;11.590;2023-05-18T00:16:48;95945.44;;;11.15;70.52
15405;BME280;7801;48.124;11.590;2023-05-18T00:19:14;95936.59;;;10.66;72.64
15405;BME280;7801;48.124;11.590;2023-05-18T00:21:41;95943.16;;;10.74;72.26
15405;BME280;7801;48.124;11.590;2023-05-18T00:24:07;95945.38;;;10.62;73.25
15405;BME280;7801;48.124;11.590;2023-05-18T00:26:38;95933.09;;;10.71;72.99
15405;BME280;7801;48.124;11.590;2023-05-18T00:29:05;95936.28;;;10.73;72.63
15405;BME280;7801;48.124;11.590;2023-05-18T00:31:31;95927.66;;;10.57;73.16
15405;BME280;7801;48.124;11.590;2023-05-18T00:34:10;95921.56;;;10.57;73.50
15405;BME280;7801;48.124;11.590;2023-05-18T00:36:36;95924.59;;;10.40;73.52
15405;BME280;7801;48.124;11.590;2023-05-18T00:39:02;95926.13;;;10.46;73.55
15405;BME280;7801;48.124;11.590;2023-05-18T00:41:28;95929.72;;;10.31;74.15
15405;BME280;7801;48.124;11.590;2023-05-18T00:43:55;95925.72;;;10.34;73.84
15405;BME280;7801;48.124;11.590;2023-05-18T00:46:24;95924.53;;;10.06;74.84
15405;BME280;7801;48.124;11.590;2023-05-18T00:48:51;95923.19;;;10.09;75.16
15405;BME280;7801;48.124;11.590;2023-05-18T00:51:18;95925.06;;;10.08;74.97
15405;BME280;7801;48.124;11.590;2023-05-18T00:53:44;95923.75;;;10.00;75.08
15405;BME280;7801;48.124;11.590;2023-05-18T00:56:10;95916.50;;;9.72;76.16
15405;BME280;7801;48.124;11.590;2023-05-18T00:58:40;95926.31;;;9.77;76.30
15405;BME280;7801;48.124;11.590;2023-05-18T01:01:07;95924.09;;;9.94;75.17
15405;BME280;7801;48.124;11.590;2023-05-18T01:03:34;95918.47;;;10.00;75.14
15405;BME280;7801;48.124;11.590;2023-05-18T01:06:03;95921.72;;;9.92;75.31
15405;BME280;7801;48.124;11.590;2023-05-18T01:08:30;95926.69;;;9.99;75.09
15405;BME280;7801;48.124;11.590;2023-05-18T01:14:00;95912.62;;;9.98;75.24
15405;BME280;7801;48.124;11.590;2023-05-18T01:16:30;95916.66;;;9.96;75.09
15405;BME280;7801;48.124;11.590;2023-05-18T01:22:10;95914.69;;;9.68;76.16
15405;BME280;7801;48.124;11.590;2023-05-18T01:24:41;95919.72;;;9.69;76.12
15405;BME280;7801;48.124;11.590;2023-05-18T01:27:07;95919.28;;;9.47;77.09
15405;BME280;7801;48.124;11.590;2023-05-18T01:29:34;95924.06;;;9.40;77.36
15405;BME280;7801;48.124;11.590;2023-05-18T01:32:00;95917.94;;;9.54;77.03
15405;BME280;7801;48.124;11.590;2023-05-18T01:34:26;95917.47;;;9.32;77.32
15405;BME280;7801;48.124;11.590;2023-05-18T01:36:51;95912.19;;;9.32;77.22
15405;BME280;7801;48.124;11.590;2023-05-18T01:39:17;95909.03;;;9.15;77.77
15405;BME280;7801;48.124;11.590;2023-05-18T01:41:54;95912.78;;;9.09;78.38
15405;BME280;7801;48.124;11.590;2023-05-18T01:44:30;95912.78;;;9.14;78.31
15405;BME280;7801;48.124;11.590;2023-05-18T01:52:18;95910.94;;;9.09;78.67
15405;BME280;7801;48.124;11.590;2023-05-18T01:54:49;95910.13;;;9.04;78.65
15405;BME280;7801;48.124;11.590;2023-05-18T01:57:15;95906.47;;;8.84;79.68
15405;BME280;7801;48.124;11.590;2023-05-18T01:59:41;95902.25;;;8.78;80.20
15405;BME280;7801;48.124;11.590;2023-05-18T02:02:07;95902.50;;;8.77;80.30
15405;BME280;7801;48.124;11.590;2023-05-18T02:04:32;95907.53;;;8.83;80.61
15405;BME280;7801;48.124;11.590;2023-05-18T02:06:59;95908.03;;;8.95;80.16
15405;BME280;7801;48.124;11.590;2023-05-18T02:09:24;95903.28;;;8.92;80.69
15405;BME280;7801;48.124;11.590;2023-05-18T02:11:50;95901.72;;;8.91;80.48
15405;BME280;7801;48.124;11.590;2023-05-18T02:14:15;95905.91;;;9.13;79.51
15405;BME280;7801;48.124;11.590;2023-05-18T02:16:40;95903.53;;;9.01;79.90
15405;BME280;7801;48.124;11.590;2023-05-18T02:19:06;95903.25;;;9.03;79.90
15405;BME280;7801;48.124;11.590;2023-05-18T02:21:31;95894.31;;;8.93;80.14
15405;BME280;7801;48.124;11.590;2023-05-18T02:23:58;95893.16;;;9.15;79.80
15405;BME280;7801;48.124;11.590;2023-05-18T02:26:24;95898.81;;;8.93;80.25
15405;BME280;7801;48.124;11.590;2023-05-18T02:28:50;95899.59;;;8.88;80.75
15405;BME280;7801;48.124;11.590;2023-05-18T02:31:15;95900.69;;;8.62;81.88
15405;BME280;7801;48.124;11.590;2023-05-18T02:33:41;95897.78;;;8.53;82.40
15405;BME280;7801;48.124;11.590;2023-05-18T02:36:10;95898.56;;;8.69;82.19
15405;BME280;7801;48.124;11.590;2023-05-18T02:38:40;95900.19;;;8.50;82.57
15405;BME280;7801;48.124;11.590;2023-05-18T02:41:07;95887.47;;;8.62;83.02
15405;BME280;7801;48.124;11.590;2023-05-18T02:43:32;95892.19;;;8.75;82.60
15405;BME280;7801;48.124;11.590;2023-05-18T02:45:57;95885.00;;;8.96;81.83
15405;BME280;7801;48.124;11.590;2023-05-18T02:48:23;95881.56;;;9.01;81.81
15405;BME280;7801;48.124;11.590;2023-05-18T02:50:48;95882.41;;;8.76;82.83
15405;BME280;7801;48.124;11.590;2023-05-18T02:53:14;95883.72;;;8.73;83.13
15405;BME280;7801;48.124;11.590;2023-05-18T02:55:39;95879.25;;;8.69;83.85
15405;BME280;7801;48.124;11.590;2023-05-18T02:58:05;95883.50;;;8.70;84.03
15405;BME280;7801;48.124;11.590;2023-05-18T03:00:31;95876.09;;;8.72;84.13
15405;BME280;7801;48.124;11.590;2023-05-18T03:02:56;95880.03;;;8.74;84.29
15405;BME280;7801;48.124;11.590;2023-05-18T03:05:24;95875.28;;;8.61;84.68
15405;BME280;7801;48.124;11.590;2023-05-18T03:07:50;95873.47;;;8.46;85.72
15405;BME280;7801;48.124;11.590;2023-05-18T03:10:16;95875.28;;;8.71;85.29
15405;BME280;7801;48.124;11.590;2023-05-18T03:12:42;95873.12;;;8.88;84.48
15405;BME280;7801;48.124;11.590;2023-05-18T03:15:08;95876.84;;;8.87;84.67
15405;BME280;7801;48.124;11.590;2023-05-18T03:17:34;95873.94;;;8.79;84.81
15405;BME280;7801;48.124;11.590;2023-05-18T03:19:59;95871.59;;;8.72;85.49
15405;BME280;7801;48.124;11.590;2023-05-18T03:22:25;95874.25;;;8.72;85.56
15405;BME280;7801;48.124;11.590;2023-05-18T03:24:50;95871.84;;;8.66;86.13
15405;BME280;7801;48.124;11.590;2023-05-18T03:27:15;95872.66;;;8.66;86.54
15405;BME280;7801;48.124;11.590;2023-05-18T03:29:42;95872.34;;;8.83;86.16
15405;BME280;7801;48.124;11.590;2023-05-18T03:32:08;95873.16;;;8.78;86.00
15405;BME280;7801;48.124;11.590;2023-05-18T03:34:33;95875.25;;;8.86;85.97
15405;BME280;7801;48.124;11.590;2023-05-18T03:36:59;95874.19;;;8.92;85.66
15405;BME280;7801;48.124;11.590;2023-05-18T03:39:24;95872.03;;;9.00;85.43
15405;BME280;7801;48.124;11.590;2023-05-18T03:41:50;95874.47;;;8.81;86.09
15405;BME280;7801;48.124;11.590;2023-05-18T03:44:17;95870.50;;;8.93;86.20
15405;BME280;7801;48.124;11.590;2023-05-18T03:46:42;95879.22;;;8.79;86.90
15405;BME280;7801;48.124;11.590;2023-05-18T03:49:07;95880.03;;;8.84;86.85
15405;BME280;7801;48.124;11.590;2023-05-18T03:51:32;95880.03;;;8.89;86.73
15405;BME280;7801;48.124;11.590;2023-05-18T03:53:58;95881.59;;;8.85;87.14
15405;BME280;7801;48.124;11.590;2023-05-18T03:56:23;95883.19;;;8.76;87.71
15405;BME280;7801;48.124;11.590;2023-05-18T03:58:49;95878.13;;;9.05;86.90
15405;BME280;7801;48.124;11.590;2023-05-18T04:01:15;95880.78;;;9.00;86.79
15405;BME280;7801;48.124;11.590;2023-05-18T04:03:43;95889.53;;;8.85;88.03
15405;BME280;7801;48.124;11.590;2023-05-18T04:06:09;95890.38;;;8.66;88.89
15405;BME280;7801;48.124;11.590;2023-05-18T04:08:35;95881.38;;;8.72;89.68
15405;BME280;7801;48.124;11.590;2023-05-18T04:11:01;95889.84;;;8.58;90.22
15405;BME280;7801;48.124;11.590;2023-05-18T04:13:26;95886.94;;;8.60;90.60
15405;BME280;7801;48.124;11.590;2023-05-18T04:15:51;95886.41;;;8.58;90.64
15405;BME280;7801;48.124;11.590;2023-05-18T04:18:17;95878.47;;;8.63;90.78
15405;BME280;7801;48.124;11.590;2023-05-18T04:20:42;95892.22;;;8.55;91.15
15405;BME280;7801;48.124;11.590;2023-05-18T04:23:10;95894.59;;;8.61;91.00
15405;BME280;7801;48.124;11.590;2023-05-18T04:25:35;95885.09;;;8.60;90.92
15405;BME280;7801;48.124;11.590;2023-05-18T04:28:03;95889.59;;;8.70;90.85
15405;BME280;7801;48.124;11.590;2023-05-18T04:30:29;95895.66;;;8.71;90.74
15405;BME280;7801;48.124;11.590;2023-05-18T04:32:55;95899.34;;;8.54;91.32
15405;BME280;7801;48.124;11.590;2023-05-18T04:35:22;95894.34;;;8.53;91.76
15405;BME280;7801;48.124;11.590;2023-05-18T04:37:49;95892.75;;;8.62;90.96
15405;BME280;7801;48.124;11.590;2023-05-18T04:40:14;95897.50;;;8.55;91.79
15405;BME280;7801;48.124;11.590;2023-05-18T04:42:42;95902.03;;;8.44;92.58
15405;BME280;7801;48.124;11.590;2023-05-18T04:45:15;95906.25;;;8.45;92.73
15405;BME280;7801;48.124;11.590;2023-05-18T04:47:42;95908.37;;;8.48;92.31
15405;BME280;7801;48.124;11.590;2023-05-18T04:50:16;95902.56;;;8.51;92.03
15405;BME280;7801;48.124;11.590;2023-05-18T04:52:43;95909.69;;;8.51;92.22
15405;BME280;7801;48.124;11.590;2023-05-18T04:55:19;95914.19;;;8.45;92.59
15405;BME280;7801;48.124;11.590;2023-05-18T04:57:52;95918.66;;;8.65;92.05
15405;BME280;7801;48.124;11.590;2023-05-18T05:00:21;95918.66;;;8.65;91.85
15405;BME280;7801;48.124;11.590;2023-05-18T05:02:48;95909.69;;;8.71;91.75
15405;BME280;7801;48.124;11.590;2023-05-18T05:05:13;95903.56;;;8.76;91.43
15405;BME280;7801;48.124;11.590;2023-05-18T05:07:39;95909.91;;;8.85;91.17
15405;BME280;7801;48.124;11.590;2023-05-18T05:10:04;95915.47;;;8.93;90.82
15405;BME280;7801;48.124;11.590;2023-05-18T05:12:30;95914.41;;;8.89;90.60
15405;BME280;7801;48.124;11.590;2023-05-18T05:14:55;95914.38;;;9.00;89.99
15405;BME280;7801;48.124;11.590;2023-05-18T05:17:21;95913.84;;;9.08;89.70
15405;BME280;7801;48.124;11.590;2023-05-18T05:19:47;95909.09;;;8.94;90.57
15405;BME280;7801;48.124;11.590;2023-05-18T05:22:13;95912.25;;;8.96;90.51
15405;BME280;7801;48.124;11.590;2023-05-18T05:24:38;95909.63;;;8.96;90.29
15405;BME280;7801;48.124;11.590;2023-05-18T05:27:04;95919.12;;;9.13;90.02
15405;BME280;7801;48.124;11.590;2023-05-18T05:29:29;95911.94;;;9.28;89.19
15405;BME280;7801;48.124;11.590;2023-05-18T05:31:54;95909.53;;;9.32;89.05
15405;BME280;7801;48.124;11.590;2023-05-18T05:34:20;95914.00;;;9.42;88.82
15405;BME280;7801;48.124;11.590;2023-05-18T05:36:45;95916.63;;;9.42;88.40
15405;BME280;7801;48.124;11.590;2023-05-18T05:39:10;95905.50;;;9.45;87.85
15405;BME280;7801;48.124;11.590;2023-05-18T05:41:38;95912.03;;;9.62;87.41
15405;BME280;7801;48.124;11.590;2023-05-18T05:44:03;95900.91;;;9.65;87.17
15405;BME280;7801;48.124;11.590;2023-05-18T05:46:29;95907.78;;;9.67;87.13
15405;BME280;7801;48.124;11.590;2023-05-18T05:48:54;95904.50;;;9.85;86.44
15405;BME280;7801;48.124;11.590;2023-05-18T05:51:20;95899.47;;;9.83;85.38
15405;BME280;7801;48.124;11.590;2023-05-18T05:53:45;95897.59;;;9.89;85.11
15405;BME280;7801;48.124;11.590;2023-05-18T05:56:11;95900.28;;;9.84;85.68
15405;BME280;7801;48.124;11.590;2023-05-18T05:58:37;95894.66;;;9.95;84.76
15405;BME280;7801;48.124;11.590;2023-05-18T06:01:02;95900.75;;;9.96;85.12
15405;BME280;7801;48.124;11.590;2023-05-18T06:03:28;95907.84;;;10.06;85.02
15405;BME280;7801;48.124;11.590;2023-05-18T06:05:55;95905.12;;;10.16;83.41
15405;BME280;7801;48.124;11.590;2023-05-18T06:08:21;95904.84;;;10.17;82.00
15405;BME280;7801;48.124;11.590;2023-05-18T06:10:48;95918.63;;;10.19;81.41
15405;BME280;7801;48.124;11.590;2023-05-18T06:13:13;95920.00;;;10.12;80.41
15405;BME280;7801;48.124;11.590;2023-05-18T06:15:39;95918.59;;;10.24;80.88
15405;BME280;7801;48.124;11.590;2023-05-18T06:18:04;95914.63;;;10.27;81.07
15405;BME280;7801;48.124;11.590;2023-05-18T06:20:30;95924.59;;;10.40;80.90
15405;BME280;7801;48.124;11.590;2023-05-18T06:22:55;95916.31;;;10.47;80.59
15405;BME280;7801;48.124;11.590;2023-05-18T06:25:21;95925.84;;;10.53;80.40
15405;BME280;7801;48.124;11.590;2023-05-18T06:27:46;95911.88;;;10.71;80.42
15405;BME280;7801;48.124;11.590;2023-05-18T06:30:12;95915.28;;;10.77;78.26
15405;BME280;7801;48.124;11.590;2023-05-18T06:32:38;95914.78;;;10.75;77.84
15405;BME280;7801;48.124;11.590;2023-05-18T06:35:04;95923.25;;;10.77;78.49
15405;BME280;7801;48.124;11.590;2023-05-18T06:37:30;95918.38;;;10.84;78.17
15405;BME280;7801;48.124;11.590;2023-05-18T06:39:57;95921.63;;;11.05;78.46
15405;BME280;7801;48.124;11.590;2023-05-18T06:42:22;95917.97;;;11.00;77.90
15405;BME280;7801;48.124;11.590;2023-05-18T06:44:47;95920.06;;;11.03;77.96
15405;BME280;7801;48.124;11.590;2023-05-18T06:47:14;95922.09;;;11.12;77.25
15405;BME280;7801;48.124;11.590;2023-05-18T06:49:40;95917.34;;;11.09;77.85
15405;BME280;7801;48.124;11.590;2023-05-18T06:52:05;95916.91;;;11.25;77.63
15405;BME280;7801;48.124;11.590;2023-05-18T06:54:32;95916.25;;;11.39;76.76
15405;BME280;7801;48.124;11.590;2023-05-18T06:56:58;95912.09;;;11.51;76.55
15405;BME280;7801;48.124;11.590;2023-05-18T06:59:23;95913.97;;;11.27;75.86
15405;BME280;7801;48.124;11.590;2023-05-18T07:01:48;95913.47;;;11.25;76.15
15405;BME280;7801;48.124;11.590;2023-05-18T07:04:14;95926.31;;;11.18;76.51
15405;BME280;7801;48.124;11.590;2023-05-18T07:06:40;95922.84;;;11.17;75.95
15405;BME280;7801;48.124;11.590;2023-05-18T07:09:05;95928.09;;;11.22;75.41
15405;BME280;7801;48.124;11.590;2023-05-18T07:11:32;95927.72;;;11.34;73.93
15405;BME280;7801;48.124;11.590;2023-05-18T07:13:58;95917.75;;;11.45;72.46
15405;BME280;7801;48.124;11.590;2023-05-18T07:16:25;95917.66;;;11.31;70.83
15405;BME280;7801;48.124;11.590;2023-05-18T07:18:50;95919.19;;;11.37;70.57
15405;BME280;7801;48.124;11.590;2023-05-18T07:21:16;95921.19;;;11.45;70.94
15405;BME280;7801;48.124;11.590;2023-05-18T07:23:41;95911.59;;;11.49;69.85
15405;BME280;7801;48.124;11.590;2023-05-18T07:26:06;95912.03;;;11.56;69.24
15405;BME280;7801;48.124;11.590;2023-05-18T07:28:35;95933.16;;;11.66;68.60
15405;BME280;7801;48.124;11.590;2023-05-18T07:31:00;95916.00;;;11.59;68.16
15405;BME280;7801;48.124;11.590;2023-05-18T07:33:25;95919.59;;;11.68;67.05
15405;BME280;7801;48.124;11.590;2023-05-18T07:35:51;95923.03;;;11.68;66.92
15405;BME280;7801;48.124;11.590;2023-05-18T07:38:16;95910.75;;;11.78;66.25
15405;BME280;7801;48.124;11.590;2023-05-18T07:40:41;95914.13;;;11.83;65.60
15405;BME280;7801;48.124;11.590;2023-05-18T07:43:07;95921.75;;;11.90;66.38
15405;BME280;7801;48.124;11.590;2023-05-18T07:45:32;95919.03;;;11.95;65.38
15405;BME280;7801;48.124;11.590;2023-05-18T07:47:57;95919.31;;;12.12;65.50
15405;BME280;7801;48.124;11.590;2023-05-18T07:50:23;95916.16;;;12.10;65.97
15405;BME280;7801;48.124;11.590;2023-05-18T07:52:48;95914.72;;;12.18;66.38
15405;BME280;7801;48.124;11.590;2023-05-18T07:55:13;95911.78;;;12.19;66.42
15405;BME280;7801;48.124;11.590;2023-05-18T07:57:39;95919.97;;;12.23;65.37
15405;BME280;7801;48.124;11.590;2023-05-18T08:00:05;95913.63;;;12.19;64.40
15405;BME280;7801;48.124;11.590;2023-05-18T08:02:30;95920.94;;;12.27;64.45
15405;BME280;7801;48.124;11.590;2023-05-18T08:04:56;95914.25;;;12.29;64.78
15405;BME280;7801;48.124;11.590;2023-05-18T08:07:21;95914.06;;;12.45;63.19
15405;BME280;7801;48.124;11.590;2023-05-18T08:09:50;95929.84;;;12.55;63.03
15405;BME280;7801;48.124;11.590;2023-05-18T08:12:16;95915.94;;;13.23;84.82
15405;BME280;7801;48.124;11.590;2023-05-18T08:14:41;95910.69;;;13.59;78.94
15405;BME280;7801;48.124;11.590;2023-05-18T08:17:06;95907.56;;;14.06;81.66
15405;BME280;7801;48.124;11.590;2023-05-18T08:19:32;95917.38;;;14.33;78.05
15405;BME280;7801;48.124;11.590;2023-05-18T08:21:57;95918.47;;;14.32;65.73
15405;BME280;7801;48.124;11.590;2023-05-18T08:24:22;95928.34;;;14.68;70.80
15405;BME280;7801;48.124;11.590;2023-05-18T08:26:48;95929.13;;;14.46;63.23
15405;BME280;7801;48.124;11.590;2023-05-18T08:29:13;95921.91;;;14.47;67.23
15405;BME280;7801;48.124;11.590;2023-05-18T08:31:39;95917.25;;;14.38;61.67
15405;BME280;7801;48.124;11.590;2023-05-18T08:34:06;95917.69;;;14.76;66.58
15405;BME280;7801;48.124;11.590;2023-05-18T08:36:33;95924.00;;;14.81;63.55
15405;BME280;7801;48.124;11.590;2023-05-18T08:38:59;95931.59;;;14.87;61.31
15405;BME280;7801;48.124;11.590;2023-05-18T08:44:26;95914.38;;;14.93;64.43
15405;BME280;7801;48.124;11.590;2023-05-18T08:46:55;95917.97;;;14.97;63.36
15405;BME280;7801;48.124;11.590;2023-05-18T08:49:20;95917.31;;;15.14;66.64
15405;BME280;7801;48.124;11.590;2023-05-18T08:51:47;95913.50;;;14.84;62.99
15405;BME280;7801;48.124;11.590;2023-05-18T08:54:19;95912.59;;;14.89;60.06
15405;BME280;7801;48.124;11.590;2023-05-18T08:56:45;95908.78;;;14.81;64.49
15405;BME280;7801;48.124;11.590;2023-05-18T08:59:17;95905.31;;;14.81;67.45
15405;BME280;7801;48.124;11.590;2023-05-18T09:01:43;95908.06;;;14.67;61.93
15405;BME280;7801;48.124;11.590;2023-05-18T09:04:09;95904.12;;;14.64;65.10
15405;BME280;7801;48.124;11.590;2023-05-18T09:06:34;95896.16;;;14.95;66.39
15405;BME280;7801;48.124;11.590;2023-05-18T09:09:01;95912.06;;;14.78;61.19
15405;BME280;7801;48.124;11.590;2023-05-18T09:11:32;95912.41;;;14.85;58.00
15405;BME280;7801;48.124;11.590;2023-05-18T09:13:59;95898.75;;;15.18;58.05
15405;BME280;7801;48.124;11.590;2023-05-18T09:16:25;95909.78;;;15.25;58.08
15405;BME280;7801;48.124;11.590;2023-05-18T09:18:50;95911.28;;;15.08;56.35
15405;BME280;7801;48.124;11.590;2023-05-18T09:21:16;95917.69;;;15.30;57.24
15405;BME280;7801;48.124;11.590;2023-05-18T09:23:42;95915.81;;;15.39;55.77
15405;BME280;7801;48.124;11.590;2023-05-18T09:26:08;95917.81;;;15.25;57.39
15405;BME280;7801;48.124;11.590;2023-05-18T09:28:39;95919.94;;;15.45;56.77
15405;BME280;7801;48.124;11.590;2023-05-18T09:31:07;95920.44;;;15.47;57.99
15405;BME280;7801;48.124;11.590;2023-05-18T09:33:36;95914.06;;;15.65;56.44
15405;BME280;7801;48.124;11.590;2023-05-18T09:36:06;95913.03;;;15.92;58.05
15405;BME280;7801;48.124;11.590;2023-05-18T09:38:39;95919.00;;;15.89;54.69
15405;BME280;7801;48.124;11.590;2023-05-18T09:41:19;95917.13;;;15.90;55.67
15405;BME280;7801;48.124;11.590;2023-05-18T09:43:48;95915.25;;;16.07;57.77
15405;BME280;7801;48.124;11.590;2023-05-18T09:46:15;95912.75;;;16.11;55.46
15405;BME280;7801;48.124;11.590;2023-05-18T09:48:45;95914.31;;;16.12;57.01
15405;BME280;7801;48.124;11.590;2023-05-18T09:51:12;95918.25;;;16.14;56.14
15405;BME280;7801;48.124;11.590;2023-05-18T09:53:41;95913.06;;;16.09;56.07
15405;BME280;7801;48.124;11.590;2023-05-18T09:56:07;95925.59;;;15.74;55.10
15405;BME280;7801;48.124;11.590;2023-05-18T09:58:39;95922.25;;;15.69;55.93
15405;BME280;7801;48.124;11.590;2023-05-18T10:01:05;95925.06;;;15.64;58.82
15405;BME280;7801;48.124;11.590;2023-05-18T10:03:35;95918.78;;;15.68;58.87
15405;BME280;7801;48.124;11.590;2023-05-18T10:06:09;95912.25;;;15.92;59.38
15405;BME280;7801;48.124;11.590;2023-05-18T10:08:36;95926.69;;;15.82;55.78
15405;BME280;7801;48.124;11.590;2023-05-18T10:11:02;95919.50;;;16.00;55.03
15405;BME280;7801;48.124;11.590;2023-05-18T10:13:29;95916.97;;;16.03;54.85
15405;BME280;7801;48.124;11.590;2023-05-18T10:16:00;95916.63;;;15.88;56.78
15405;BME280;7801;48.124;11.590;2023-05-18T10:18:32;95924.81;;;15.82;57.03
15405;BME280;7801;48.124;11.590;2023-05-18T10:20:59;95921.66;;;15.80;57.39
15405;BME280;7801;48.124;11.590;2023-05-18T10:23:27;95914.44;;;15.90;55.54
15405;BME280;7801;48.124;11.590;2023-05-18T10:25:54;95917.72;;;15.87;56.33
15405;BME280;7801;48.124;11.590;2023-05-18T10:28:26;95921.56;;;16.11;54.49
15405;BME280;7801;48.124;11.590;2023-05-18T10:30:57;95917.75;;;16.04;54.25
15405;BME280;7801;48.124;11.590;2023-05-18T10:33:24;95914.47;;;16.15;55.20
15405;BME280;7801;48.124;11.590;2023-05-18T10:35:51;95912.75;;;16.20;53.50
15405;BME280;7801;48.124;11.590;2023-05-18T10:38:24;95927.06;;;15.98;53.47
15405;BME280;7801;48.124;11.590;2023-05-18T10:40:59;95913.19;;;16.04;55.59
15405;BME280;7801;48.124;11.590;2023-05-18T10:43:26;95910.84;;;15.94;55.55
15405;BME280;7801;48.124;11.590;2023-05-18T10:45:56;95906.97;;;15.61;53.11
15405;BME280;7801;48.124;11.590;2023-05-18T10:48:23;95912.69;;;15.85;55.76
15405;BME280;7801;48.124;11.590;2023-05-18T10:50:50;95907.84;;;15.96;56.50
15405;BME280;7801;48.124;11.590;2023-05-18T10:53:17;95914.28;;;15.77;54.69
15405;BME280;7801;48.124;11.590;2023-05-18T10:55:43;95910.22;;;16.06;55.89
15405;BME280;7801;48.124;11.590;2023-05-18T10:58:11;95905.75;;;15.84;56.36
15405;BME280;7801;48.124;11.590;2023-05-18T11:00:39;95911.41;;;15.82;55.07
15405;BME280;7801;48.124;11.590;2023-05-18T11:03:10;95921.19;;;15.87;56.56
15405;BME280;7801;48.124;11.590;2023-05-18T11:05:40;95919.09;;;15.58;55.67
15405;BME280;7801;48.124;11.590;2023-05-18T11:08:05;95906.44;;;15.50;56.88
15405;BME280;7801;48.124;11.590;2023-05-18T11:10:39;95911.72;;;15.72;55.37
15405;BME280;7801;48.124;11.590;2023-05-18T11:13:06;95914.53;;;15.28;55.27
15405;BME280;7801;48.124;11.590;2023-05-18T11:18:15;95905.25;;;14.94;54.94
15405;BME280;7801;48.124;11.590;2023-05-18T11:20:44;95913.91;;;14.47;55.67
15405;BME280;7801;48.124;11.590;2023-05-18T11:23:09;95913.22;;;14.05;56.59
15405;BME280;7801;48.124;11.590;2023-05-18T11:25:35;95911.72;;;13.99;57.54
15405;BME280;7801;48.124;11.590;2023-05-18T11:28:06;95917.72;;;13.68;59.49
15405;BME280;7801;48.124;11.590;2023-05-18T11:35:32;95921.25;;;13.77;59.49
15405;BME280;7801;48.124;11.590;2023-05-18T11:38:08;95909.41;;;13.84;58.61
15405;BME280;7801;48.124;11.590;2023-05-18T11:40:45;95911.88;;;13.80;58.56
15405;BME280;7801;48.124;11.590;2023-05-18T11:43:23;95911.47;;;13.87;59.38
15405;BME280;7801;48.124;11.590;2023-05-18T11:45:56;95914.25;;;13.82;58.59
15405;BME280;7801;48.124;11.590;2023-05-18T11:48:26;95915.34;;;13.67;59.46
15405;BME280;7801;48.124;11.590;2023-05-18T11:50:52;95916.63;;;13.69;59.00
15405;BME280;7801;48.124;11.590;2023-05-18T11:53:24;95917.19;;;13.80;59.00
15405;BME280;7801;48.124;11.590;2023-05-18T11:55:52;95921.06;;;13.74;59.09
15405;BME280;7801;48.124;11.590;2023-05-18T11:58:19;95917.72;;;13.68;58.84
15405;BME280;7801;48.124;11.590;2023-05-18T12:00:47;95921.66;;;13.57;59.20
15405;BME280;7801;48.124;11.590;2023-05-18T12:03:13;95909.03;;;13.63;59.53
15405;BME280;7801;48.124;11.590;2023-05-18T12:05:39;95906.47;;;13.71;59.25
15405;BME280;7801;48.124;11.590;2023-05-18T12:08:07;95914.34;;;13.63;59.10
15405;BME280;7801;48.124;11.590;2023-05-18T12:10:33;95908.22;;;13.62;60.49
15405;BME280;7801;48.124;11.590;2023-05-18T12:13:01;95899.16;;;13.63;60.07
15405;BME280;7801;48.124;11.590;2023-05-18T12:15:27;95910.81;;;13.67;60.88
15405;BME280;7801;48.124;11.590;2023-05-18T12:17:53;95906.47;;;13.58;61.19
15405;BME280;7801;48.124;11.590;2023-05-18T12:20:20;95896.47;;;13.63;59.24
15405;BME280;7801;48.124;11.590;2023-05-18T12:22:48;95903.66;;;13.76;58.81
15405;BME280;7801;48.124;11.590;2023-05-18T12:25:21;95902.69;;;13.72;58.73
15405;BME280;7801;48.124;11.590;2023-05-18T12:27:47;95897.69;;;13.93;58.27
15405;BME280;7801;48.124;11.590;2023-05-18T12:30:18;95894.94;;;13.98;58.10
15405;BME280;7801;48.124;11.590;2023-05-18T12:32:46;95899.28;;;13.94;58.28
15405;BME280;7801;48.124;11.590;2023-05-18T12:35:12;95905.63;;;13.85;58.55
15405;BME280;7801;48.124;11.590;2023-05-18T12:37:44;95904.06;;;13.84;59.79
15405;BME280;7801;48.124;11.590;2023-05-18T12:40:15;95908.00;;;13.86;58.99
15405;BME280;7801;48.124;11.590;2023-05-18T12:45:25;95906.63;;;13.89;59.09
15405;BME280;7801;48.124;11.590;2023-05-18T12:47:51;95899.59;;;13.93;58.63
15405;BME280;7801;48.124;11.590;2023-05-18T12:50:19;95905.59;;;13.98;58.71
15405;BME280;7801;48.124;11.590;2023-05-18T12:52:47;95906.41;;;13.99;59.08
15405;BME280;7801;48.124;11.590;2023-05-18T12:55:19;95899.28;;;13.94;58.97
15405;BME280;7801;48.124;11.590;2023-05-18T12:58:14;95898.03;;;13.92;58.72
15405;BME280;7801;48.124;11.590;2023-05-18T13:00:44;95899.13;;;13.91;58.79
15405;BME280;7801;48.124;11.590;2023-05-18T13:03:11;95905.63;;;13.85;59.12
15405;BME280;7801;48.124;11.590;2023-05-18T13:05:40;95894.09;;;13.75;60.26
15405;BME280;7801;48.124;11.590;2023-05-18T13:08:07;95896.75;;;13.75;59.46
15405;BME280;7801;48.124;11.590;2023-05-18T13:10:32;95888.06;;;13.84;58.92
15405;BME280;7801;48.124;11.590;2023-05-18T13:12:59;95882.22;;;13.82;59.34
15405;BME280;7801;48.124;11.590;2023-05-18T13:15:37;95886.88;;;13.90;59.12
15405;BME280;7801;48.124;11.590;2023-05-18T13:18:07;95875.84;;;14.05;58.81
15405;BME280;7801;48.124;11.590;2023-05-18T13:20:48;95875.16;;;13.99;59.47
15405;BME280;7801;48.124;11.590;2023-05-18T13:23:17;95871.53;;;13.95;58.74
15405;BME280;7801;48.124;11.590;2023-05-18T13:25:43;95886.78;;;13.81;58.40
15405;BME280;7801;48.124;11.590;2023-05-18T13:28:11;95888.75;;;13.89;59.04
15405;BME280;7801;48.124;11.590;2023-05-18T13:30:37;95881.16;;;13.83;58.84